• Join FlightAware (Why Join?)
  • Login
  • US Flag 
11:53AM EDT


 

Airport Tracker/Info


-or-


 

Live Flight TrackerFlight Track Log ✈ N724AE ✈ 04-Apr-2013 ✈ KDFW - KCID

Flight Track Log - Related Links

Times and Time Zones

All times are in EDT time to prevent confusion due to time zone crossing. See the N724AE flight status page for this flight to view local times or setup timezone preferences in your user account.

Time Position Orientation Groundspeed Altitude Reporting Facility
EDT Latitude Longitude Course Direction KTS MPH feet Rate Location/Type
12:23PM 32.9333 -97.0500 332° Northwest 197 227 2,800  Level Dallas / Fort Worth TRACON
12:24PM 33.0000 -97.0500 360° North 227 261 5,300 2,520 Climbing Dallas / Fort Worth TRACON
12:25PM 32.8213 -96.8057 10° North  Level FlightAware Approximate
12:26PM 32.9307 -96.8000 North  Level FlightAware Approximate
12:26PM 33.1147 -97.0614 355° North 237 273 9,800  Level Fort Worth Center
12:27PM 33.0317 -96.8363 328° Northwest  Level FlightAware Approximate
12:27PM 33.1919 -97.0733 353° North 262 302 11,000  Level Fort Worth Center
12:28PM 33.1282 -96.8987 332° Northwest  Level FlightAware Approximate
12:28PM 33.2858 -97.0853 354° North 316 364 12,400  Level Fort Worth Center
12:29PM 33.2255 -96.9595 332° Northwest  Level FlightAware Approximate
12:29PM 33.3736 -97.0975 353° North 342 394 14,000  Level Fort Worth Center
12:30PM 33.4781 -97.1072 356° North 347 399 16,100 1,920 Climbing Fort Worth Center
12:31PM 33.5614 -97.0969 North 347 399 17,900 1,800 Climbing Fort Worth Center
12:32PM 33.6678 -97.0842 North 347 399 19,700 1,800 Climbing Fort Worth Center
12:33PM 33.7533 -97.0711 North 347 399 21,500 1,740 Climbing Fort Worth Center
12:34PM 33.8494 -97.0583 North 347 399 23,200 1,620 Climbing Fort Worth Center
12:35PM 33.9558 -97.0453 North 347 399 24,800 1,500 Climbing Fort Worth Center
12:36PM 34.0497 -97.0325 North 352 405 26,300 1,080 Climbing Fort Worth Center
12:37PM 34.1456 -97.0219 North 346 398 27,000 840 Climbing Fort Worth Center
12:38PM 34.2500 -97.0114 North 353 406 28,000 1,020 Climbing Fort Worth Center
12:39PM 34.3564 -96.9958 North 365 420 29,100 1,080 Climbing Fort Worth Center
12:40PM 34.4500 -96.9500 22° Northeast 358 412 30,200 1,200 Climbing Fort Worth Center
12:41PM 34.5436 -96.8867 29° Northeast 368 423 31,600 1,200 Climbing Fort Worth Center
12:42PM 34.6414 -96.8256 27° Northeast 379 436 32,700 1,200 Climbing Fort Worth Center
12:43PM 34.7350 -96.7617 29° Northeast 384 442 34,100 1,380 Climbing Fort Worth Center
12:44PM 34.8306 -96.7003 28° Northeast 390 449 35,500 1,200 Climbing Fort Worth Center
12:45PM 34.9242 -96.6361 29° Northeast 385 443 36,500 720 Climbing Fort Worth Center
12:46PM 35.0114 -96.5769 29° Northeast 391 450 37,000 240 Climbing Fort Worth Center
12:47PM 35.1131 -96.5125 27° Northeast 391 450 37,000  Level Fort Worth Center
12:48PM 35.2169 -96.4428 29° Northeast 403 464 37,000  Level Fort Worth Center
12:49PM 35.3186 -96.3756 28° Northeast 410 472 37,000  Level Fort Worth Center
12:50PM 35.4222 -96.3056 29° Northeast 410 472 37,000  Level Fort Worth Center
12:52PM 35.6083 -96.1819 28° Northeast 420 483 37,000  Level Kansas City Center
12:53PM 35.7139 -96.1106 29° Northeast 429 494 37,000  Level Kansas City Center
12:54PM 35.8353 -96.0306 28° Northeast 435 501 37,000  Level Kansas City Center
12:55PM 35.9419 -95.9597 28° Northeast 435 501 37,000  Level Kansas City Center
12:56PM 36.0469 -95.8883 29° Northeast 431 496 37,000  Level Kansas City Center
12:57PM 36.1514 -95.8175 29° Northeast 428 493 37,000  Level Kansas City Center
12:58PM 36.2603 -95.7447 28° Northeast 428 493 37,000  Level Kansas City Center
12:59PM 36.3678 -95.6756 27° Northeast 433 498 37,000  Level Kansas City Center
01:00PM 36.4758 -95.6028 28° Northeast 438 504 37,000  Level Kansas City Center
01:01PM 36.5856 -95.5306 28° Northeast 445 512 37,000  Level Kansas City Center
01:02PM 36.7000 -95.4544 28° Northeast 443 510 37,000  Level Kansas City Center
01:03PM 36.8281 -95.3686 28° Northeast 435 501 37,000 -420 Level Kansas City Center
01:04PM 36.9347 -95.2986 28° Northeast 431 496 36,200 -960 Descending Kansas City Center
01:05PM 37.0400 -95.2272 28° Northeast 430 495 35,000 -1,080 Descending Kansas City Center
01:06PM 37.1386 -95.1617 28° Northeast 407 468 34,100 -900 Descending Kansas City Center
01:07PM 37.2372 -95.0956 28° Northeast 400 460 33,200 -960 Descending Kansas City Center
01:08PM 37.3408 -95.0269 28° Northeast 413 475 32,200 -960 Descending Kansas City Center
01:10PM 37.4497 -94.9528 28° Northeast 434 499 31,300 -600 Descending Kansas City Center
01:11PM 37.5794 -94.8653 28° Northeast 440 506 31,000 -180 Descending Kansas City Center
01:12PM 37.6861 -94.7914 29° Northeast 431 496 31,000  Level Kansas City Center
01:13PM 37.7864 -94.7233 28° Northeast 427 491 31,000  Level Kansas City Center
01:14PM 37.9028 -94.6442 28° Northeast 426 490 31,000  Level Kansas City Center
01:15PM 38.0025 -94.5744 29° Northeast 427 491 31,000  Level Kansas City Center
01:16PM 38.1031 -94.5053 28° Northeast 429 494 31,000  Level Kansas City Center
01:17PM 38.2197 -94.4236 29° Northeast 429 494 31,000  Level Kansas City Center
01:18PM 38.3203 -94.3547 28° Northeast 429 494 31,000  Level Kansas City Center
01:19PM 38.4394 -94.2694 29° Northeast 436 502 31,000  Level Kansas City Center
01:20PM 38.5403 -94.1997 28° Northeast 433 498 31,000  Level Kansas City Center
01:21PM 38.6578 -94.1172 29° Northeast 432 497 31,000  Level Kansas City Center
01:22PM 38.7575 -94.0461 29° Northeast 430 495 31,000  Level Kansas City Center
01:23PM 38.8742 -93.9639 29° Northeast 431 496 31,000  Level Kansas City Center
01:24PM 38.9733 -93.8933 29° Northeast 427 491 31,000  Level Kansas City Center
01:25PM 39.0889 -93.8108 29° Northeast 427 491 31,000  Level Kansas City Center
01:26PM 39.1878 -93.7411 29° Northeast 425 489 31,000  Level Kansas City Center
01:27PM 39.2900 -93.6678 29° Northeast 424 488 31,000  Level Kansas City Center
01:28PM 39.3933 -93.5944 29° Northeast 427 491 31,000  Level Kansas City Center
01:29PM 39.5156 -93.5056 29° Northeast 423 487 31,000  Level Kansas City Center
01:30PM 39.6147 -93.4278 31° Northeast 422 486 31,000  Level Kansas City Center
01:31PM 39.7181 -93.3575 28° Northeast 419 482 31,000  Level Kansas City Center
01:32PM 39.8194 -93.2819 30° Northeast 421 484 31,000  Level Kansas City Center
01:33PM 39.9203 -93.2069 30° Northeast 421 484 31,000  Level Kansas City Center
01:34PM 40.0433 -93.1169 29° Northeast 423 487 31,000 -240 Level Kansas City Center
01:35PM 40.1511 -93.0392 29° Northeast 424 488 30,600 -660 Descending Kansas City Center
01:36PM 40.2511 -92.9611 31° Northeast 434 499 29,700 -780 Descending Kansas City Center
01:37PM 40.3539 -92.8864 29° Northeast 439 505 29,000 -360 Descending Kansas City Center
01:38PM 40.4717 -92.7978 30° Northeast 437 503 29,000  Level Kansas City Center
01:40PM 40.5697 -92.7228 30° Northeast 428 493 29,000  Level Kansas City Center
01:41PM 40.6950 -92.6300 29° Northeast 436 502 29,000 -240 Level Chicago Center
01:42PM 40.8006 -92.5478 31° Northeast 439 505 28,600 -900 Descending Chicago Center
01:43PM 40.9069 -92.4675 30° Northeast 441 507 27,200 -2,040 Descending Chicago Center
01:44PM 41.0103 -92.3869 30° Northeast 436 502 24,400 -3,060 Descending Chicago Center
01:45PM 41.1344 -92.2928 30° Northeast 431 496 20,900 -3,180 Descending Chicago Center
01:46PM 41.2344 -92.2161 30° Northeast 420 483 17,900 -2,760 Descending Chicago Center
01:47PM 41.3333 -92.1414 30° Northeast 380 437 15,300 -2,580 Descending Chicago Center
01:48PM 41.4222 -92.0719 30° Northeast 373 429 12,600 -1,920 Descending Chicago Center
01:49PM 41.5042 -92.0092 30° Northeast 340 391 11,400 -1,440 Descending Chicago Center
01:50PM 41.5733 -91.9550 30° Northeast 292 336 9,700 -1,740 Descending Chicago Center
01:51PM 41.6208 -91.8714 53° Northeast 288 331 7,900 -2,040 Descending Chicago Center
01:52PM 41.6736 -91.7747 54° Northeast 274 315 5,500 -1,860 Descending Chicago Center
01:53PM 41.7236 -91.6992 48° Northeast 275 316 4,100 -1,380 Descending Chicago Center